Time,TemperatureF,DewpointF,PressureIn,WindDirection,WindDirectionDegrees,WindSpeedMPH,WindSpeedGustMPH,Humidity,HourlyPrecipIn,Conditions,Clouds,dailyrainin,SoftwareType,DateUTC
2013-03-11 00:00:00,32.7,31.9,30.25,South,180,4.9,7.4,97,0.00,,,0.00,WUHU21623XXSP,2013-03-11 07:00:00,
2013-03-11 00:05:00,32.7,31.9,30.25,South,180,8.3,8.3,97,0.00,,,0.00,WUHU21623XXSP,2013-03-11 07:05:00,
2013-03-11 00:10:00,32.7,31.9,30.25,South,180,7.4,8.3,97,0.00,,,0.00,WUHU21623XXSP,2013-03-11 07:10:00,
2013-03-11 00:15:00,32.7,32.1,30.25,South,180,8.3,8.3,98,0.00,,,0.00,WUHU21623XXSP,2013-03-11 07:15:00,
2013-03-11 00:20:00,32.7,32.1,30.25,South,180,6.0,8.3,98,0.00,,,0.00,WUHU21623XXSP,2013-03-11 07:20:00,
2013-03-11 00:25:00,32.5,31.9,30.25,South,180,6.5,6.9,98,0.00,,,0.00,WUHU21623XXSP,2013-03-11 07:25:00,
2013-03-11 00:30:00,32.5,31.9,30.25,SSE,157,4.7,6.9,98,0.00,,,0.00,WUHU21623XXSP,2013-03-11 07:30:00,
2013-03-11 00:35:00,32.2,31.4,30.25,SSE,157,0.0,4.7,97,0.00,,,0.00,WUHU21623XXSP,2013-03-11 07:35:00,
2013-03-11 00:40:00,32.2,31.4,30.26,ENE,67,0.0,4.7,97,0.00,,,0.00,WUHU21623XXSP,2013-03-11 07:40:00,
2013-03-11 00:45:00,32.2,31.4,30.25,ENE,67,0.0,0.0,97,0.00,,,0.00,WUHU21623XXSP,2013-03-11 07:45:00,
2013-03-11 00:50:00,31.8,31.0,30.26,ENE,67,0.0,0.0,97,0.00,,,0.00,WUHU21623XXSP,2013-03-11 07:50:00,
2013-03-11 00:55:00,31.8,31.0,30.25,ENE,67,0.0,0.0,97,0.00,,,0.00,WUHU21623XXSP,2013-03-11 07:55:00,
2013-03-11 01:00:00,31.5,30.7,30.26,ENE,67,0.0,0.0,97,0.00,,,0.00,WUHU21623XXSP,2013-03-11 08:00:00,
2013-03-11 01:05:00,31.5,30.7,30.26,WSW,247,0.0,0.0,97,0.00,,,0.00,WUHU21623XXSP,2013-03-11 08:05:00,
2013-03-11 01:10:00,31.6,30.8,30.26,West,270,0.0,0.0,97,0.00,,,0.00,WUHU21623XXSP,2013-03-11 08:10:00,
2013-03-11 01:15:00,31.8,31.0,30.26,West,270,0.0,0.0,97,0.00,,,0.00,WUHU21623XXSP,2013-03-11 08:15:00,
2013-03-11 01:20:00,32.2,31.4,30.26,WSW,247,0.0,0.0,97,0.00,,,0.00,WUHU21623XXSP,2013-03-11 08:20:00,
2013-03-11 01:25:00,32.2,31.4,30.26,WSW,247,2.9,2.9,97,0.00,,,0.00,WUHU21623XXSP,2013-03-11 08:25:00,
2013-03-11 01:30:00,32.2,31.4,30.26,WSW,247,2.9,2.9,97,0.00,,,0.00,WUHU21623XXSP,2013-03-11 08:30:00,
2013-03-11 01:35:00,31.8,31.0,30.26,SW,225,0.0,2.9,97,0.00,,,0.00,WUHU21623XXSP,2013-03-11 08:35:00,
2013-03-11 01:40:00,31.8,31.0,30.26,WSW,247,5.4,5.4,97,0.00,,,0.00,WUHU21623XXSP,2013-03-11 08:40:00,
2013-03-11 01:45:00,31.8,31.0,30.26,WSW,247,0.0,5.4,97,0.00,,,0.00,WUHU21623XXSP,2013-03-11 08:45:00,
2013-03-11 01:50:00,31.6,30.8,30.27,WSW,247,0.0,5.4,97,0.00,,,0.00,WUHU21623XXSP,2013-03-11 08:50:00,
2013-03-11 01:55:00,31.6,30.8,30.27,WSW,247,0.0,0.0,97,0.00,,,0.00,WUHU21623XXSP,2013-03-11 08:55:00,
2013-03-11 02:00:00,31.5,30.7,30.27,WSW,247,0.0,0.0,97,0.00,,,0.00,WUHU21623XXSP,2013-03-11 09:00:00,
2013-03-11 02:05:00,31.3,30.5,30.27,WSW,247,0.0,0.0,97,0.00,,,0.00,WUHU21623XXSP,2013-03-11 09:05:00,
2013-03-11 02:10:00,31.3,30.5,30.27,WSW,247,0.0,0.0,97,0.00,,,0.00,WUHU21623XXSP,2013-03-11 09:10:00,
2013-03-11 02:15:00,30.9,30.1,30.27,WSW,247,0.0,0.0,97,0.00,,,0.00,WUHU21623XXSP,2013-03-11 09:15:00,
2013-03-11 02:20:00,30.7,29.9,30.27,West,270,0.0,0.0,97,0.00,,,0.00,WUHU21623XXSP,2013-03-11 09:20:00,
2013-03-11 02:25:00,30.7,29.9,30.27,West,270,1.3,1.3,97,0.00,,,0.00,WUHU21623XXSP,2013-03-11 09:25:00,
2013-03-11 02:30:00,30.7,29.9,30.28,West,270,0.0,1.3,97,0.00,,,0.00,WUHU21623XXSP,2013-03-11 09:30:00,
2013-03-11 02:35:00,30.0,28.9,30.28,West,270,0.0,1.3,96,0.00,,,0.00,WUHU21623XXSP,2013-03-11 09:35:00,
2013-03-11 02:40:00,29.8,28.7,30.28,West,270,0.0,0.0,96,0.00,,,0.00,WUHU21623XXSP,2013-03-11 09:40:00,
2013-03-11 02:45:00,29.7,28.6,30.28,West,270,0.0,0.0,96,0.00,,,0.00,WUHU21623XXSP,2013-03-11 09:45:00,
2013-03-11 02:50:00,29.5,28.4,30.28,WSW,247,0.0,0.0,96,0.00,,,0.00,WUHU21623XXSP,2013-03-11 09:50:00,
2013-03-11 02:55:00,29.1,28.0,30.28,WSW,247,0.0,0.0,96,0.00,,,0.00,WUHU21623XXSP,2013-03-11 09:55:00,
2013-03-11 03:00:00,29.1,28.0,30.28,WSW,247,0.0,0.0,96,0.00,,,0.00,WUHU21623XXSP,2013-03-11 10:00:00,
2013-03-11 03:05:00,29.1,28.0,30.28,WSW,247,0.0,0.0,96,0.00,,,0.00,WUHU21623XXSP,2013-03-11 10:05:00,
2013-03-11 03:10:00,28.9,27.8,30.28,WSW,247,0.0,0.0,96,0.00,,,0.00,WUHU21623XXSP,2013-03-11 10:10:00,
2013-03-11 03:15:00,28.8,27.7,30.27,WSW,247,0.0,0.0,96,0.00,,,0.00,WUHU21623XXSP,2013-03-11 10:15:00,
2013-03-11 03:20:00,28.2,27.1,30.27,WSW,247,0.0,0.0,96,0.00,,,0.00,WUHU21623XXSP,2013-03-11 10:20:00,
2013-03-11 03:25:00,28.0,26.9,30.27,WSW,247,0.0,0.0,96,0.00,,,0.00,WUHU21623XXSP,2013-03-11 10:25:00,
2013-03-11 03:30:00,28.2,27.1,30.27,WSW,247,0.0,0.0,96,0.00,,,0.00,WUHU21623XXSP,2013-03-11 10:30:00,
2013-03-11 03:35:00,27.9,26.8,30.27,WSW,247,0.0,0.0,96,0.00,,,0.00,WUHU21623XXSP,2013-03-11 10:35:00,
2013-03-11 03:40:00,27.7,26.6,30.27,WSW,247,0.0,0.0,96,0.00,,,0.00,WUHU21623XXSP,2013-03-11 10:40:00,
2013-03-11 03:45:00,27.3,26.0,30.28,WSW,247,0.0,0.0,95,0.00,,,0.00,WUHU21623XXSP,2013-03-11 10:45:00,
2013-03-11 03:50:00,28.2,27.1,30.28,NNW,337,0.0,2.7,96,0.00,,,0.00,WUHU21623XXSP,2013-03-11 10:50:00,
2013-03-11 03:55:00,28.6,27.5,30.28,NNW,337,0.0,2.7,96,0.00,,,0.00,WUHU21623XXSP,2013-03-11 10:55:00,
2013-03-11 04:00:00,28.9,27.8,30.28,NNW,337,0.0,0.0,96,0.00,,,0.00,WUHU21623XXSP,2013-03-11 11:00:00,
2013-03-11 04:05:00,29.1,28.3,30.27,West,270,0.0,0.0,97,0.00,,,0.00,WUHU21623XXSP,2013-03-11 11:05:00,
2013-03-11 04:10:00,29.1,28.3,30.27,West,270,0.0,0.0,97,0.00,,,0.00,WUHU21623XXSP,2013-03-11 11:10:00,
2013-03-11 04:15:00,29.1,28.0,30.27,West,270,0.0,0.0,96,0.00,,,0.00,WUHU21623XXSP,2013-03-11 11:15:00,
2013-03-11 04:20:00,28.8,27.7,30.28,West,270,0.0,0.0,96,0.00,,,0.00,WUHU21623XXSP,2013-03-11 11:20:00,
2013-03-11 04:25:00,28.6,27.5,30.28,West,270,0.0,0.0,96,0.00,,,0.00,WUHU21623XXSP,2013-03-11 11:25:00,
2013-03-11 04:30:00,28.2,27.1,30.28,West,270,0.0,0.0,96,0.00,,,0.00,WUHU21623XXSP,2013-03-11 11:30:00,
2013-03-11 04:35:00,28.0,26.9,30.28,West,270,0.0,0.0,96,0.00,,,0.00,WUHU21623XXSP,2013-03-11 11:35:00,
2013-03-11 04:40:00,27.7,26.6,30.28,West,270,0.0,0.0,96,0.00,,,0.00,WUHU21623XXSP,2013-03-11 11:40:00,
2013-03-11 04:45:00,27.7,26.6,30.29,West,270,0.0,0.0,96,0.00,,,0.00,WUHU21623XXSP,2013-03-11 11:45:00,
2013-03-11 04:50:00,27.5,26.4,30.29,NW,315,0.0,0.0,96,0.00,,,0.00,WUHU21623XXSP,2013-03-11 11:50:00,
2013-03-11 04:55:00,27.3,26.2,30.29,NW,315,0.0,0.0,96,0.00,,,0.00,WUHU21623XXSP,2013-03-11 11:55:00,
2013-03-11 05:00:00,27.3,26.2,30.28,NW,315,0.0,0.0,96,0.00,,,0.00,WUHU21623XXSP,2013-03-11 12:00:00,
2013-03-11 05:05:00,27.1,26.0,30.28,NW,315,0.0,0.0,96,0.00,,,0.00,WUHU21623XXSP,2013-03-11 12:05:00,
2013-03-11 05:10:00,27.3,26.2,30.28,NW,315,0.0,0.0,96,0.00,,,0.00,WUHU21623XXSP,2013-03-11 12:10:00,
2013-03-11 05:15:00,27.5,26.4,30.29,NW,315,0.0,0.0,96,0.00,,,0.00,WUHU21623XXSP,2013-03-11 12:15:00,
2013-03-11 05:20:00,27.3,26.2,30.29,NW,315,0.0,0.0,96,0.00,,,0.00,WUHU21623XXSP,2013-03-11 12:20:00,
2013-03-11 05:25:00,27.1,26.3,30.29,NW,315,0.0,0.0,97,0.00,,,0.00,WUHU21623XXSP,2013-03-11 12:25:00,
2013-03-11 05:30:00,27.3,26.5,30.29,NW,315,0.0,0.0,97,0.00,,,0.00,WUHU21623XXSP,2013-03-11 12:30:00,
2013-03-11 05:35:00,27.5,26.7,30.29,NW,315,0.0,0.0,97,0.00,,,0.00,WUHU21623XXSP,2013-03-11 12:35:00,
2013-03-11 05:40:00,28.0,27.2,30.29,NW,315,0.0,0.0,97,0.00,,,0.00,WUHU21623XXSP,2013-03-11 12:40:00,
2013-03-11 05:45:00,28.0,27.2,30.29,NW,315,0.0,0.0,97,0.00,,,0.00,WUHU21623XXSP,2013-03-11 12:45:00,
2013-03-11 05:50:00,28.0,27.2,30.30,NW,315,0.0,0.0,97,0.00,,,0.00,WUHU21623XXSP,2013-03-11 12:50:00,
2013-03-11 05:55:00,28.0,27.2,30.30,NW,315,0.0,0.0,97,0.00,,,0.00,WUHU21623XXSP,2013-03-11 12:55:00,
2013-03-11 06:00:00,28.0,27.2,30.30,NW,315,0.0,0.0,97,0.00,,,0.00,WUHU21623XXSP,2013-03-11 13:00:00,
2013-03-11 06:05:00,28.0,27.2,30.30,NW,315,0.0,0.0,97,0.00,,,0.00,WUHU21623XXSP,2013-03-11 13:05:00,
2013-03-11 06:10:00,28.0,27.2,30.30,NW,315,0.0,0.0,97,0.00,,,0.00,WUHU21623XXSP,2013-03-11 13:10:00,
2013-03-11 06:15:00,27.7,26.9,30.30,NW,315,0.0,0.0,97,0.00,,,0.00,WUHU21623XXSP,2013-03-11 13:15:00,
2013-03-11 06:20:00,27.3,26.5,30.31,NW,315,0.0,0.0,97,0.00,,,0.00,WUHU21623XXSP,2013-03-11 13:20:00,
2013-03-11 06:25:00,27.1,26.3,30.31,NW,315,0.0,0.0,97,0.00,,,0.00,WUHU21623XXSP,2013-03-11 13:25:00,
2013-03-11 06:30:00,27.0,26.2,30.31,NW,315,0.0,0.0,97,0.00,,,0.00,WUHU21623XXSP,2013-03-11 13:30:00,
2013-03-11 06:35:00,26.4,25.6,30.31,NW,315,0.0,0.0,97,0.00,,,0.00,WUHU21623XXSP,2013-03-11 13:35:00,
2013-03-11 06:40:00,26.4,25.6,30.30,NW,315,0.0,0.0,97,0.00,,,0.00,WUHU21623XXSP,2013-03-11 13:40:00,
2013-03-11 06:45:00,26.2,25.4,30.30,NW,315,0.0,0.0,97,0.00,,,0.00,WUHU21623XXSP,2013-03-11 13:45:00,
2013-03-11 06:50:00,26.2,25.4,30.31,NW,315,0.0,0.0,97,0.00,,,0.00,WUHU21623XXSP,2013-03-11 13:50:00,
2013-03-11 06:55:00,26.1,25.3,30.31,NW,315,0.0,0.0,97,0.00,,,0.00,WUHU21623XXSP,2013-03-11 13:55:00,
2013-03-11 07:00:00,26.1,25.3,30.31,NW,315,0.0,0.0,97,0.00,,,0.00,WUHU21623XXSP,2013-03-11 14:00:00,
2013-03-11 07:05:00,26.2,25.4,30.31,NW,315,0.0,0.0,97,0.00,,,0.00,WUHU21623XXSP,2013-03-11 14:05:00,
2013-03-11 07:10:00,26.4,25.6,30.31,NW,315,0.0,0.0,97,0.00,,,0.00,WUHU21623XXSP,2013-03-11 14:10:00,
2013-03-11 07:15:00,26.4,25.6,30.31,NW,315,0.0,0.0,97,0.00,,,0.00,WUHU21623XXSP,2013-03-11 14:15:00,
2013-03-11 07:20:00,27.1,26.3,30.31,NW,315,0.0,0.0,97,0.00,,,0.00,WUHU21623XXSP,2013-03-11 14:20:00,
2013-03-11 07:25:00,27.5,26.7,30.31,NW,315,0.0,0.0,97,0.00,,,0.00,WUHU21623XXSP,2013-03-11 14:25:00,
2013-03-11 07:30:00,27.7,26.9,30.31,NW,315,0.0,0.0,97,0.00,,,0.00,WUHU21623XXSP,2013-03-11 14:30:00,
2013-03-11 07:35:00,27.9,27.1,30.31,NW,315,0.0,0.0,97,0.00,,,0.00,WUHU21623XXSP,2013-03-11 14:35:00,
2013-03-11 07:40:00,28.0,27.2,30.31,NW,315,0.0,0.0,97,0.00,,,0.00,WUHU21623XXSP,2013-03-11 14:40:00,
2013-03-11 07:45:00,28.2,27.4,30.31,NW,315,0.0,0.0,97,0.00,,,0.00,WUHU21623XXSP,2013-03-11 14:45:00,
2013-03-11 07:50:00,28.2,27.4,30.32,NW,315,0.0,0.0,97,0.00,,,0.00,WUHU21623XXSP,2013-03-11 14:50:00,
2013-03-11 07:55:00,28.6,27.8,30.32,NW,315,0.0,0.0,97,0.00,,,0.00,WUHU21623XXSP,2013-03-11 14:55:00,
2013-03-11 08:00:00,28.6,27.8,30.32,NW,315,0.0,0.0,97,0.00,,,0.00,WUHU21623XXSP,2013-03-11 15:00:00,
2013-03-11 08:05:00,28.6,28.0,30.32,NW,315,0.0,0.0,98,0.00,,,0.00,WUHU21623XXSP,2013-03-11 15:05:00,
2013-03-11 08:10:00,28.8,28.2,30.33,NW,315,0.0,0.0,98,0.00,,,0.00,WUHU21623XXSP,2013-03-11 15:10:00,
2013-03-11 08:15:00,28.9,28.3,30.33,NW,315,0.0,0.0,98,0.00,,,0.00,WUHU21623XXSP,2013-03-11 15:15:00,
2013-03-11 08:20:00,29.1,28.5,30.32,NW,315,0.0,0.0,98,0.00,,,0.00,WUHU21623XXSP,2013-03-11 15:20:00,
2013-03-11 08:25:00,29.3,28.7,30.33,NW,315,0.0,0.0,98,0.00,,,0.00,WUHU21623XXSP,2013-03-11 15:25:00,
2013-03-11 08:30:00,29.5,28.9,30.32,NW,315,0.0,0.0,98,0.00,,,0.00,WUHU21623XXSP,2013-03-11 15:30:00,
2013-03-11 08:35:00,29.8,29.2,30.33,NW,315,0.0,0.0,98,0.00,,,0.00,WUHU21623XXSP,2013-03-11 15:35:00,
2013-03-11 08:40:00,30.0,29.4,30.33,NW,315,0.0,0.0,98,0.00,,,0.00,WUHU21623XXSP,2013-03-11 15:40:00,
2013-03-11 08:45:00,30.0,29.4,30.33,NW,315,0.0,0.0,98,0.00,,,0.00,WUHU21623XXSP,2013-03-11 15:45:00,
2013-03-11 08:50:00,30.4,29.8,30.33,NW,315,0.0,0.0,98,0.00,,,0.00,WUHU21623XXSP,2013-03-11 15:50:00,
2013-03-11 08:55:00,30.7,30.1,30.33,NW,315,0.0,0.0,98,0.00,,,0.00,WUHU21623XXSP,2013-03-11 15:55:00,
2013-03-11 09:00:00,30.9,30.3,30.34,NW,315,0.0,0.0,98,0.00,,,0.00,WUHU21623XXSP,2013-03-11 16:00:00,
2013-03-11 09:05:00,31.1,30.8,30.34,WNW,292,0.0,0.0,99,0.00,,,0.00,WUHU21623XXSP,2013-03-11 16:05:00,
2013-03-11 09:10:00,31.6,31.3,30.34,WNW,292,0.0,1.8,99,0.00,,,0.00,WUHU21623XXSP,2013-03-11 16:10:00,
2013-03-11 09:15:00,31.8,31.5,30.34,WNW,292,0.0,1.8,99,0.00,,,0.00,WUHU21623XXSP,2013-03-11 16:15:00,
2013-03-11 09:20:00,32.7,32.4,30.34,WNW,292,0.0,0.0,99,0.00,,,0.00,WUHU21623XXSP,2013-03-11 16:20:00,
2013-03-11 09:25:00,32.7,32.4,30.34,WNW,292,0.0,0.0,99,0.00,,,0.00,WUHU21623XXSP,2013-03-11 16:25:00,
2013-03-11 09:30:00,32.9,32.6,30.34,WNW,292,0.0,0.0,99,0.00,,,0.00,WUHU21623XXSP,2013-03-11 16:30:00,
2013-03-11 09:35:00,33.4,33.1,30.34,WNW,292,0.0,0.0,99,0.00,,,0.00,WUHU21623XXSP,2013-03-11 16:35:00,
2013-03-11 09:40:00,33.6,33.3,30.34,WNW,292,0.0,0.0,99,0.00,,,0.00,WUHU21623XXSP,2013-03-11 16:40:00,
2013-03-11 09:45:00,34.0,33.4,30.34,WNW,292,0.0,0.0,98,0.00,,,0.00,WUHU21623XXSP,2013-03-11 16:45:00,
2013-03-11 09:50:00,34.5,34.2,30.34,WNW,292,0.0,0.0,99,0.00,,,0.00,WUHU21623XXSP,2013-03-11 16:50:00,
2013-03-11 09:55:00,35.1,34.5,30.34,WNW,292,0.0,1.6,98,0.00,,,0.00,WUHU21623XXSP,2013-03-11 16:55:00,
2013-03-11 10:00:00,35.2,34.6,30.34,WNW,292,0.0,1.6,98,0.00,,,0.00,WUHU21623XXSP,2013-03-11 17:00:00,
2013-03-11 10:05:00,35.8,34.9,30.34,WNW,292,0.0,0.0,97,0.00,,,0.00,WUHU21623XXSP,2013-03-11 17:05:00,
2013-03-11 10:10:00,36.5,35.6,30.34,WNW,292,0.0,0.0,97,0.00,,,0.00,WUHU21623XXSP,2013-03-11 17:10:00,
2013-03-11 10:15:00,37.2,36.1,30.35,WNW,292,0.0,0.0,96,0.00,,,0.00,WUHU21623XXSP,2013-03-11 17:15:00,
2013-03-11 10:20:00,38.1,36.7,30.35,WNW,292,0.0,0.0,95,0.00,,,0.00,WUHU21623XXSP,2013-03-11 17:20:00,
2013-03-11 10:25:00,38.8,37.1,30.35,WNW,292,0.0,0.0,94,0.00,,,0.00,WUHU21623XXSP,2013-03-11 17:25:00,
2013-03-11 10:30:00,39.7,37.7,30.34,WNW,292,0.0,0.0,93,0.00,,,0.00,WUHU21623XXSP,2013-03-11 17:30:00,
2013-03-11 10:35:00,41.2,38.7,30.34,WNW,292,0.0,0.0,91,0.00,,,0.00,WUHU21623XXSP,2013-03-11 17:35:00,
2013-03-11 10:40:00,42.1,38.7,30.34,WNW,292,0.0,0.0,88,0.00,,,0.00,WUHU21623XXSP,2013-03-11 17:40:00,
2013-03-11 10:45:00,42.4,38.7,30.34,WNW,292,0.0,0.0,87,0.00,,,0.00,WUHU21623XXSP,2013-03-11 17:45:00,
2013-03-11 10:50:00,43.2,38.9,30.34,WNW,292,0.0,0.0,85,0.00,,,0.00,WUHU21623XXSP,2013-03-11 17:50:00,
2013-03-11 10:55:00,43.9,39.0,30.35,WNW,292,0.0,0.0,83,0.00,,,0.00,WUHU21623XXSP,2013-03-11 17:55:00,
2013-03-11 11:00:00,45.1,39.9,30.34,WNW,292,0.0,0.0,82,0.00,,,0.00,WUHU21623XXSP,2013-03-11 18:00:00,
2013-03-11 11:05:00,46.2,39.7,30.34,North,0,0.7,0.7,78,0.00,,,0.00,WUHU21623XXSP,2013-03-11 18:05:00,
2013-03-11 11:10:00,46.8,40.0,30.34,North,0,5.1,5.1,77,0.00,,,0.00,WUHU21623XXSP,2013-03-11 18:10:00,
2013-03-11 11:16:00,47.1,38.9,30.34,NNE,22,2.7,6.9,73,0.00,,,0.00,WUHU21623XXSP,2013-03-11 18:16:00,
2013-03-11 11:21:00,47.1,37.5,30.34,NNW,337,8.3,8.3,69,0.00,,,0.00,WUHU21623XXSP,2013-03-11 18:21:00,
2013-03-11 11:25:00,46.6,38.1,30.34,North,0,8.3,8.3,72,0.00,,,0.00,WUHU21623XXSP,2013-03-11 18:25:00,
2013-03-11 11:30:00,46.6,37.4,30.34,North,0,7.4,8.3,70,0.00,,,0.00,WUHU21623XXSP,2013-03-11 18:30:00,
2013-03-11 11:35:00,46.2,36.2,30.34,North,0,2.2,8.1,68,0.00,,,0.00,WUHU21623XXSP,2013-03-11 18:35:00,
2013-03-11 11:40:00,46.2,35.9,30.34,NNE,22,3.6,7.4,67,0.00,,,0.00,WUHU21623XXSP,2013-03-11 18:40:00,
2013-03-11 11:45:00,46.0,34.9,30.34,North,0,8.5,8.5,65,0.00,,,0.00,WUHU21623XXSP,2013-03-11 18:45:00,
2013-03-11 11:50:00,46.0,35.7,30.34,North,0,8.1,8.5,67,0.00,,,0.00,WUHU21623XXSP,2013-03-11 18:50:00,
2013-03-11 11:55:00,46.2,35.5,30.34,North,0,8.7,8.7,66,0.00,,,0.00,WUHU21623XXSP,2013-03-11 18:55:00,
2013-03-11 12:01:00,46.2,34.3,30.34,NNE,22,8.5,8.7,63,0.00,,,0.00,WUHU21623XXSP,2013-03-11 19:01:00,
2013-03-11 12:06:00,46.0,33.7,30.34,North,0,7.6,8.5,62,0.00,,,0.00,WUHU21623XXSP,2013-03-11 19:06:00,
2013-03-11 12:11:00,46.0,34.1,30.34,NNE,22,3.4,7.6,63,0.00,,,0.00,WUHU21623XXSP,2013-03-11 19:11:00,
2013-03-11 12:16:00,46.2,33.9,30.34,NNE,22,2.9,4.3,62,0.00,,,0.00,WUHU21623XXSP,2013-03-11 19:16:00,
2013-03-11 12:21:00,46.6,33.4,30.33,North,0,7.8,7.8,60,0.00,,,0.00,WUHU21623XXSP,2013-03-11 19:21:00,
2013-03-11 12:26:00,46.6,34.3,30.33,NNE,22,4.9,7.8,62,0.00,,,0.00,WUHU21623XXSP,2013-03-11 19:26:00,
2013-03-11 12:31:00,46.6,33.4,30.33,North,0,6.0,8.1,60,0.00,,,0.00,WUHU21623XXSP,2013-03-11 19:31:00,
2013-03-11 12:36:00,46.2,32.6,30.33,North,0,0.4,8.1,59,0.00,,,0.00,WUHU21623XXSP,2013-03-11 19:36:00,
2013-03-11 12:41:00,45.7,32.6,30.33,North,0,0.0,6.5,60,0.00,,,0.00,WUHU21623XXSP,2013-03-11 19:41:00,
2013-03-11 12:46:00,46.0,33.3,30.33,NNW,337,2.5,6.7,61,0.00,,,0.00,WUHU21623XXSP,2013-03-11 19:46:00,
2013-03-11 12:51:00,45.9,33.2,30.33,NW,315,5.4,8.5,61,0.00,,,0.00,WUHU21623XXSP,2013-03-11 19:51:00,
2013-03-11 12:56:00,45.7,33.4,30.33,North,0,6.9,8.5,62,0.00,,,0.00,WUHU21623XXSP,2013-03-11 19:56:00,
2013-03-11 13:01:00,45.7,32.6,30.33,NE,45,7.2,7.2,60,0.00,,,0.00,WUHU21623XXSP,2013-03-11 20:01:00,
2013-03-11 13:06:00,45.7,33.0,30.33,NE,45,0.0,7.2,61,0.00,,,0.00,WUHU21623XXSP,2013-03-11 20:06:00,
2013-03-11 13:11:00,45.7,32.6,30.33,NW,315,0.0,5.6,60,0.00,,,0.00,WUHU21623XXSP,2013-03-11 20:11:00,
2013-03-11 13:16:00,45.7,32.6,30.33,NNE,22,0.0,5.6,60,0.00,,,0.00,WUHU21623XXSP,2013-03-11 20:16:00,
2013-03-11 13:20:00,45.7,32.2,30.33,NNW,337,4.5,4.5,59,0.00,,,0.00,WUHU21623XXSP,2013-03-11 20:20:00,
2013-03-11 13:21:00,45.7,32.2,30.33,NNW,337,4.5,4.5,59,0.00,,,0.00,WUHU21623XXSP,2013-03-11 20:21:00,
2013-03-11 13:24:00,45.9,32.4,30.32,NNW,337,0.0,4.5,59,0.00,,,0.00,WUHU21623XXSP,2013-03-11 20:24:00,
2013-03-11 13:30:00,46.2,33.1,30.32,NW,315,3.6,3.6,60,0.00,,,0.00,WUHU21623XXSP,2013-03-11 20:30:00,
2013-03-11 13:37:00,46.6,32.6,30.32,NNE,22,4.0,4.0,58,0.00,,,0.00,WUHU21623XXSP,2013-03-11 20:37:00,
2013-03-11 13:51:00,46.2,31.8,30.31,NNW,337,0.0,7.8,57,0.00,,,0.00,WUHU21623XXSP,2013-03-11 20:51:00,
2013-03-11 13:56:00,46.2,31.8,30.31,NNW,337,7.4,7.4,57,0.00,,,0.00,WUHU21623XXSP,2013-03-11 20:56:00,
2013-03-11 14:01:00,46.2,31.8,30.31,NW,315,0.0,7.4,57,0.00,,,0.00,WUHU21623XXSP,2013-03-11 21:01:00,
2013-03-11 14:06:00,46.8,32.8,30.31,West,270,0.0,0.0,58,0.00,,,0.00,WUHU21623XXSP,2013-03-11 21:06:00,
2013-03-11 14:12:00,47.3,32.8,30.30,North,0,0.0,7.6,57,0.00,,,0.00,WUHU21623XXSP,2013-03-11 21:12:00,
2013-03-11 14:17:00,47.1,32.6,30.30,North,0,0.0,7.6,57,0.00,,,0.00,WUHU21623XXSP,2013-03-11 21:17:00,
2013-03-11 14:22:00,47.1,33.1,30.30,WSW,247,0.0,7.2,58,0.00,,,0.00,WUHU21623XXSP,2013-03-11 21:22:00,
2013-03-11 14:27:00,47.8,32.4,30.30,WSW,247,6.3,8.3,55,0.00,,,0.00,WUHU21623XXSP,2013-03-11 21:27:00,
2013-03-11 14:32:00,47.3,32.8,30.30,WSW,247,0.0,8.3,57,0.00,,,0.00,WUHU21623XXSP,2013-03-11 21:32:00,
2013-03-11 14:37:00,47.3,32.8,30.30,WSW,247,0.0,0.0,57,0.00,,,0.00,WUHU21623XXSP,2013-03-11 21:37:00,
2013-03-11 14:42:00,47.3,32.8,30.30,WSW,247,8.3,8.3,57,0.00,,,0.00,WUHU21623XXSP,2013-03-11 21:42:00,
2013-03-11 14:47:00,47.1,32.6,30.30,WSW,247,7.8,8.3,57,0.00,,,0.00,WUHU21623XXSP,2013-03-11 21:47:00,
2013-03-11 14:52:00,47.3,32.8,30.30,WSW,247,0.0,7.8,57,0.00,,,0.00,WUHU21623XXSP,2013-03-11 21:52:00,
2013-03-11 14:57:00,47.8,32.4,30.29,WSW,247,3.4,5.1,55,0.00,,,0.00,WUHU21623XXSP,2013-03-11 21:57:00,
2013-03-11 15:02:00,48.0,33.0,30.29,West,270,0.0,3.4,56,0.00,,,0.00,WUHU21623XXSP,2013-03-11 22:02:00,
2013-03-11 15:07:00,48.6,33.6,30.29,WNW,292,7.2,7.2,56,0.00,,,0.00,WUHU21623XXSP,2013-03-11 22:07:00,
2013-03-11 15:12:00,48.2,32.3,30.29,WNW,292,4.7,8.7,54,0.00,,,0.00,WUHU21623XXSP,2013-03-11 22:12:00,
2013-03-11 15:17:00,48.2,33.2,30.29,SSW,202,6.3,8.7,56,0.00,,,0.00,WUHU21623XXSP,2013-03-11 22:17:00,
2013-03-11 15:22:00,48.7,33.7,30.29,SW,225,0.0,6.3,56,0.00,,,0.00,WUHU21623XXSP,2013-03-11 22:22:00,
2013-03-11 15:27:00,49.3,34.2,30.29,WSW,247,6.0,6.0,56,0.00,,,0.00,WUHU21623XXSP,2013-03-11 22:27:00,
2013-03-11 15:32:00,49.6,34.5,30.29,WSW,247,7.2,7.2,56,0.00,,,0.00,WUHU21623XXSP,2013-03-11 22:32:00,
2013-03-11 15:37:00,50.2,34.1,30.28,WSW,247,7.6,8.3,54,0.00,,,0.00,WUHU21623XXSP,2013-03-11 22:37:00,
2013-03-11 15:42:00,50.2,32.1,30.28,WSW,247,10.3,10.3,50,0.00,,,0.00,WUHU21623XXSP,2013-03-11 22:42:00,
2013-03-11 15:47:00,49.3,29.7,30.28,WSW,247,8.3,10.3,47,0.00,,,0.00,WUHU21623XXSP,2013-03-11 22:47:00,
2013-03-11 15:52:00,48.9,30.4,30.28,WSW,247,0.0,9.2,49,0.00,,,0.00,WUHU21623XXSP,2013-03-11 22:52:00,
2013-03-11 15:57:00,48.9,30.9,30.28,WSW,247,0.0,8.3,50,0.00,,,0.00,WUHU21623XXSP,2013-03-11 22:57:00,
2013-03-11 16:03:00,49.3,32.3,30.28,WSW,247,9.8,9.8,52,0.00,,,0.00,WUHU21623XXSP,2013-03-11 23:03:00,
2013-03-11 16:08:00,49.6,32.6,30.29,WSW,247,7.2,9.8,52,0.00,,,0.00,WUHU21623XXSP,2013-03-11 23:08:00,
2013-03-11 16:13:00,49.8,33.3,30.29,WSW,247,7.2,7.6,53,0.00,,,0.00,WUHU21623XXSP,2013-03-11 23:13:00,
2013-03-11 16:18:00,50.2,33.6,30.29,WSW,247,0.0,7.6,53,0.00,,,0.00,WUHU21623XXSP,2013-03-11 23:18:00,
2013-03-11 16:23:00,50.5,33.9,30.28,WSW,247,0.0,6.9,53,0.00,,,0.00,WUHU21623XXSP,2013-03-11 23:23:00,
2013-03-11 16:28:00,50.5,33.4,30.29,WSW,247,4.7,7.8,52,0.00,,,0.00,WUHU21623XXSP,2013-03-11 23:28:00,
2013-03-11 16:33:00,50.5,33.9,30.28,WSW,247,6.9,7.8,53,0.00,,,0.00,WUHU21623XXSP,2013-03-11 23:33:00,
2013-03-11 16:38:00,50.2,33.6,30.28,WSW,247,4.5,6.9,53,0.00,,,0.00,WUHU21623XXSP,2013-03-11 23:38:00,
2013-03-11 16:43:00,50.2,33.2,30.28,WSW,247,0.0,8.1,52,0.00,,,0.00,WUHU21623XXSP,2013-03-11 23:43:00,
2013-03-11 16:48:00,49.6,32.1,30.28,WSW,247,9.4,9.4,51,0.00,,,0.00,WUHU21623XXSP,2013-03-11 23:48:00,
2013-03-11 16:53:00,49.6,32.1,30.28,WSW,247,2.0,9.4,51,0.00,,,0.00,WUHU21623XXSP,2013-03-11 23:53:00,
2013-03-11 16:58:00,49.3,31.8,30.28,WSW,247,8.1,8.1,51,0.00,,,0.00,WUHU21623XXSP,2013-03-11 23:58:00,
2013-03-11 17:03:00,48.7,31.3,30.27,WSW,247,7.8,8.1,51,0.00,,,0.00,WUHU21623XXSP,2013-03-12 00:03:00,
2013-03-11 17:08:00,48.6,31.7,30.28,WSW,247,6.0,7.8,52,0.00,,,0.00,WUHU21623XXSP,2013-03-12 00:08:00,
2013-03-11 17:13:00,48.4,31.5,30.28,SW,225,6.9,6.9,52,0.00,,,0.00,WUHU21623XXSP,2013-03-12 00:13:00,
2013-03-11 17:18:00,47.5,30.6,30.28,SW,225,6.9,7.8,52,0.00,,,0.00,WUHU21623XXSP,2013-03-12 00:18:00,
2013-03-11 17:23:00,46.9,30.6,30.28,WSW,247,5.1,7.8,53,0.00,,,0.00,WUHU21623XXSP,2013-03-12 00:23:00,
2013-03-11 17:28:00,46.6,30.3,30.27,SW,225,0.0,7.2,53,0.00,,,0.00,WUHU21623XXSP,2013-03-12 00:28:00,
2013-03-11 17:33:00,46.2,30.4,30.27,SW,225,0.0,2.9,54,0.00,,,0.00,WUHU21623XXSP,2013-03-12 00:33:00,
2013-03-11 17:38:00,46.2,30.9,30.27,SW,225,0.0,0.0,55,0.00,,,0.00,WUHU21623XXSP,2013-03-12 00:38:00,
2013-03-11 17:43:00,46.2,30.9,30.27,SW,225,0.0,0.0,55,0.00,,,0.00,WUHU21623XXSP,2013-03-12 00:43:00,
2013-03-11 17:48:00,46.2,30.9,30.27,SW,225,7.2,7.2,55,0.00,,,0.00,WUHU21623XXSP,2013-03-12 00:48:00,
2013-03-11 17:53:00,46.0,30.2,30.27,SW,225,0.0,7.2,54,0.00,,,0.00,WUHU21623XXSP,2013-03-12 00:53:00,
2013-03-11 17:58:00,45.7,29.9,30.27,SW,225,1.3,1.3,54,0.00,,,0.00,WUHU21623XXSP,2013-03-12 00:58:00,
2013-03-11 18:03:00,45.1,29.8,30.27,SW,225,0.0,4.7,55,0.00,,,0.00,WUHU21623XXSP,2013-03-12 01:03:00,
2013-03-11 18:08:00,45.0,29.7,30.27,SW,225,0.0,4.7,55,0.00,,,0.00,WUHU21623XXSP,2013-03-12 01:08:00,
2013-03-11 18:13:00,44.4,29.2,30.27,SW,225,0.0,4.0,55,0.00,,,0.00,WUHU21623XXSP,2013-03-12 01:13:00,
2013-03-11 18:18:00,44.1,29.3,30.27,SW,225,0.0,0.0,56,0.00,,,0.00,WUHU21623XXSP,2013-03-12 01:18:00,
2013-03-11 18:23:00,43.5,29.2,30.27,SW,225,0.0,0.0,57,0.00,,,0.00,WUHU21623XXSP,2013-03-12 01:23:00,
2013-03-11 18:28:00,43.3,29.0,30.27,SW,225,0.0,0.0,57,0.00,,,0.00,WUHU21623XXSP,2013-03-12 01:28:00,
2013-03-11 18:33:00,43.0,28.8,30.27,SW,225,0.0,0.0,57,0.00,,,0.00,WUHU21623XXSP,2013-03-12 01:33:00,
2013-03-11 18:38:00,43.0,29.2,30.27,SW,225,0.0,0.0,58,0.00,,,0.00,WUHU21623XXSP,2013-03-12 01:38:00,
2013-03-11 18:43:00,42.6,28.8,30.27,SW,225,0.0,0.0,58,0.00,,,0.00,WUHU21623XXSP,2013-03-12 01:43:00,
2013-03-11 18:48:00,42.1,28.8,30.27,SW,225,0.0,0.0,59,0.00,,,0.00,WUHU21623XXSP,2013-03-12 01:48:00,
2013-03-11 18:53:00,41.7,28.4,30.27,SW,225,0.0,0.0,59,0.00,,,0.00,WUHU21623XXSP,2013-03-12 01:53:00,
2013-03-11 18:54:00,41.5,28.2,30.27,SW,225,0.0,0.0,59,0.00,,,0.00,WUHU21623XXSP,2013-03-12 01:54:00,
2013-03-11 18:58:00,41.4,28.1,30.27,SW,225,0.0,0.0,59,0.00,,,0.00,WUHU21623XXSP,2013-03-12 01:58:00,
2013-03-11 19:03:00,40.8,28.0,30.27,SW,225,0.0,0.0,60,0.00,,,0.00,WUHU21623XXSP,2013-03-12 02:03:00,
2013-03-11 19:08:00,40.6,28.2,30.27,SW,225,0.0,0.0,61,0.00,,,0.00,WUHU21623XXSP,2013-03-12 02:08:00,
2013-03-11 19:13:00,40.3,27.9,30.27,SW,225,0.0,0.0,61,0.00,,,0.00,WUHU21623XXSP,2013-03-12 02:13:00,
2013-03-11 19:18:00,40.1,28.1,30.27,SW,225,0.0,0.0,62,0.00,,,0.00,WUHU21623XXSP,2013-03-12 02:18:00,
2013-03-11 19:23:00,39.9,27.9,30.27,SW,225,0.0,0.0,62,0.00,,,0.00,WUHU21623XXSP,2013-03-12 02:23:00,
2013-03-11 19:28:00,39.7,27.7,30.27,SW,225,0.0,0.0,62,0.00,,,0.00,WUHU21623XXSP,2013-03-12 02:28:00,
2013-03-11 19:33:00,39.6,27.6,30.27,SW,225,0.0,0.0,62,0.00,,,0.00,WUHU21623XXSP,2013-03-12 02:33:00,
2013-03-11 19:38:00,39.4,27.8,30.27,SW,225,0.0,0.0,63,0.00,,,0.00,WUHU21623XXSP,2013-03-12 02:38:00,
2013-03-11 19:43:00,39.2,27.7,30.27,SW,225,0.0,0.0,63,0.00,,,0.00,WUHU21623XXSP,2013-03-12 02:43:00,
2013-03-11 19:48:00,39.0,27.5,30.27,SW,225,0.0,0.0,63,0.00,,,0.00,WUHU21623XXSP,2013-03-12 02:48:00,
2013-03-11 19:53:00,39.0,27.5,30.27,SW,225,0.0,0.0,63,0.00,,,0.00,WUHU21623XXSP,2013-03-12 02:53:00,
2013-03-11 19:58:00,38.8,27.7,30.27,SW,225,0.0,0.0,64,0.00,,,0.00,WUHU21623XXSP,2013-03-12 02:58:00,
2013-03-11 20:03:00,38.5,27.4,30.27,SW,225,0.0,0.0,64,0.00,,,0.00,WUHU21623XXSP,2013-03-12 03:03:00,
2013-03-11 20:08:00,38.7,27.6,30.27,SW,225,0.0,0.0,64,0.00,,,0.00,WUHU21623XXSP,2013-03-12 03:08:00,
2013-03-11 20:13:00,38.3,27.6,30.27,SW,225,0.0,0.0,65,0.00,,,0.00,WUHU21623XXSP,2013-03-12 03:13:00,
2013-03-11 20:18:00,37.9,27.2,30.27,SW,225,0.0,0.0,65,0.00,,,0.00,WUHU21623XXSP,2013-03-12 03:18:00,
2013-03-11 20:23:00,37.8,27.5,30.27,SW,225,0.0,0.0,66,0.00,,,0.00,WUHU21623XXSP,2013-03-12 03:23:00,
2013-03-11 20:28:00,37.8,27.5,30.27,SW,225,0.0,0.0,66,0.00,,,0.00,WUHU21623XXSP,2013-03-12 03:28:00,
2013-03-11 20:33:00,37.8,27.5,30.27,SW,225,0.0,0.0,66,0.00,,,0.00,WUHU21623XXSP,2013-03-12 03:33:00,
2013-03-11 20:38:00,37.6,27.6,30.27,SW,225,0.0,0.0,67,0.00,,,0.00,WUHU21623XXSP,2013-03-12 03:38:00,
2013-03-11 20:43:00,36.9,27.7,30.26,South,180,6.7,6.7,69,0.00,,,0.00,WUHU21623XXSP,2013-03-12 03:43:00,
2013-03-11 20:48:00,37.0,28.1,30.26,South,180,3.6,6.7,70,0.00,,,0.00,WUHU21623XXSP,2013-03-12 03:48:00,
2013-03-11 20:53:00,37.2,28.0,30.26,South,180,0.0,3.6,69,0.00,,,0.00,WUHU21623XXSP,2013-03-12 03:53:00,
2013-03-11 20:58:00,37.2,28.0,30.26,South,180,0.0,0.0,69,0.00,,,0.00,WUHU21623XXSP,2013-03-12 03:58:00,
2013-03-11 21:00:00,37.2,28.0,30.26,South,180,0.0,0.0,69,0.00,,,0.00,WUHU21623XXSP,2013-03-12 04:00:00,
2013-03-11 21:05:00,37.2,28.0,30.26,South,180,0.0,0.0,69,0.00,,,0.00,WUHU21623XXSP,2013-03-12 04:05:00,
2013-03-11 21:10:00,37.2,28.0,30.26,South,180,0.0,0.0,69,0.00,,,0.00,WUHU21623XXSP,2013-03-12 04:10:00,
2013-03-11 21:15:00,37.0,28.5,30.26,South,180,0.0,0.0,71,0.00,,,0.00,WUHU21623XXSP,2013-03-12 04:15:00,
2013-03-11 21:20:00,36.7,28.2,30.26,South,180,0.0,0.0,71,0.00,,,0.00,WUHU21623XXSP,2013-03-12 04:20:00,
2013-03-11 21:25:00,36.5,28.0,30.26,South,180,0.0,0.0,71,0.00,,,0.00,WUHU21623XXSP,2013-03-12 04:25:00,
2013-03-11 21:30:00,36.5,27.6,30.26,South,180,0.0,0.0,70,0.00,,,0.00,WUHU21623XXSP,2013-03-12 04:30:00,
2013-03-11 21:35:00,36.5,28.3,30.25,South,180,0.0,0.0,72,0.00,,,0.00,WUHU21623XXSP,2013-03-12 04:35:00,
2013-03-11 21:40:00,36.3,28.5,30.26,South,180,0.0,0.0,73,0.00,,,0.00,WUHU21623XXSP,2013-03-12 04:40:00,
2013-03-11 21:45:00,35.8,28.3,30.25,South,180,0.0,0.0,74,0.00,,,0.00,WUHU21623XXSP,2013-03-12 04:45:00,
2013-03-11 21:50:00,35.8,28.3,30.25,South,180,0.0,0.0,74,0.00,,,0.00,WUHU21623XXSP,2013-03-12 04:50:00,
2013-03-11 21:55:00,35.6,28.1,30.25,South,180,0.0,0.0,74,0.00,,,0.00,WUHU21623XXSP,2013-03-12 04:55:00,
2013-03-11 22:00:00,35.6,28.1,30.25,South,180,0.0,0.0,74,0.00,,,0.00,WUHU21623XXSP,2013-03-12 05:00:00,
2013-03-11 22:05:00,35.8,28.3,30.25,South,180,0.0,0.0,74,0.00,,,0.00,WUHU21623XXSP,2013-03-12 05:05:00,
2013-03-11 22:10:00,35.6,28.1,30.25,South,180,0.0,0.0,74,0.00,,,0.00,WUHU21623XXSP,2013-03-12 05:10:00,
2013-03-11 22:15:00,35.4,27.9,30.25,South,180,0.0,0.0,74,0.00,,,0.00,WUHU21623XXSP,2013-03-12 05:15:00,
2013-03-11 22:20:00,35.4,27.9,30.25,South,180,0.0,0.0,74,0.00,,,0.00,WUHU21623XXSP,2013-03-12 05:20:00,
2013-03-11 22:25:00,35.4,27.9,30.25,South,180,0.0,0.0,74,0.00,,,0.00,WUHU21623XXSP,2013-03-12 05:25:00,
2013-03-11 22:30:00,35.4,27.9,30.25,South,180,0.0,0.0,74,0.00,,,0.00,WUHU21623XXSP,2013-03-12 05:30:00,
2013-03-11 22:35:00,35.4,27.9,30.25,South,180,0.0,0.0,74,0.00,,,0.00,WUHU21623XXSP,2013-03-12 05:35:00,
2013-03-11 22:40:00,35.4,27.9,30.25,South,180,0.0,0.0,74,0.00,,,0.00,WUHU21623XXSP,2013-03-12 05:40:00,
2013-03-11 22:45:00,35.2,27.7,30.25,South,180,0.0,0.0,74,0.00,,,0.00,WUHU21623XXSP,2013-03-12 05:45:00,
2013-03-11 22:50:00,35.2,27.7,30.25,South,180,0.0,0.0,74,0.00,,,0.00,WUHU21623XXSP,2013-03-12 05:50:00,
2013-03-11 22:55:00,35.2,27.7,30.25,South,180,0.0,0.0,74,0.00,,,0.00,WUHU21623XXSP,2013-03-12 05:55:00,
2013-03-11 23:00:00,35.2,27.7,30.25,South,180,0.0,0.0,74,0.00,,,0.00,WUHU21623XXSP,2013-03-12 06:00:00,
2013-03-11 23:05:00,35.2,28.1,30.26,South,180,0.0,0.0,75,0.00,,,0.00,WUHU21623XXSP,2013-03-12 06:05:00,
2013-03-11 23:10:00,35.2,28.1,30.25,South,180,0.0,0.0,75,0.00,,,0.00,WUHU21623XXSP,2013-03-12 06:10:00,
2013-03-11 23:15:00,35.4,28.2,30.26,South,180,0.0,0.0,75,0.00,,,0.00,WUHU21623XXSP,2013-03-12 06:15:00,
2013-03-11 23:20:00,35.4,28.2,30.26,South,180,0.0,0.0,75,0.00,,,0.00,WUHU21623XXSP,2013-03-12 06:20:00,
2013-03-11 23:25:00,35.4,28.2,30.25,South,180,0.0,0.0,75,0.00,,,0.00,WUHU21623XXSP,2013-03-12 06:25:00,
2013-03-11 23:30:00,35.4,28.2,30.25,South,180,0.0,0.0,75,0.00,,,0.00,WUHU21623XXSP,2013-03-12 06:30:00,
2013-03-11 23:35:00,35.4,28.6,30.25,South,180,0.0,0.0,76,0.00,,,0.00,WUHU21623XXSP,2013-03-12 06:35:00,
2013-03-11 23:40:00,35.4,28.9,30.25,South,180,0.0,0.0,77,0.00,,,0.00,WUHU21623XXSP,2013-03-12 06:40:00,
2013-03-11 23:45:00,35.2,28.7,30.25,South,180,0.0,0.0,77,0.00,,,0.00,WUHU21623XXSP,2013-03-12 06:45:00,
2013-03-11 23:50:00,35.2,28.7,30.25,South,180,0.0,0.0,77,0.00,,,0.00,WUHU21623XXSP,2013-03-12 06:50:00,
2013-03-11 23:55:00,35.2,28.7,30.25,South,180,0.0,0.0,77,0.00,,,0.00,WUHU21623XXSP,2013-03-12 06:55:00,